Time;durP1;ratioP1;P1;durP2;ratioP2;P2;SDS_P1;SDS_P2;PMS_P1;PMS_P2;Temp;Humidity;BMP_temperature;BMP_pressure;BME280_temperature;BME280_humidity;BME280_pressure;Samples;Min_cycle;Max_cycle;Signal;HPM_P1;HPM_P2
2023/03/11 00:00:24;;;;;;;;;;;;;;;25.55;25.60;95602.03;5046019;28;19920;-87
2023/03/11 00:02:51;;;;;;;;;;;;;;;25.81;25.13;95616.72;5050793;28;20023;-87
2023/03/11 00:05:22;;;;;;;;;;;;;;;25.98;24.86;95611.94;5052206;28;19947;-87
2023/03/11 00:07:49;;;;;;;;;;;;;;;26.06;24.72;95602.50;5048396;28;20381;-87
2023/03/11 00:10:16;;;;;;;;;;;;;;;26.09;24.98;95609.16;5052918;28;20011;-88
2023/03/11 00:12:42;;;;;;;;;;;;;;;26.04;24.84;95609.91;5042739;28;19978;-88
2023/03/11 00:15:08;;;;;;;;;;;;;;;26.09;24.45;95607.09;5051962;28;19917;-88
2023/03/11 00:17:35;;;;;;;;;;;;;;;25.97;25.19;95594.31;5051218;28;20411;-87
2023/03/11 00:20:02;;;;;;;;;;;;;;;25.28;25.92;95594.97;5052079;28;19935;-87
2023/03/11 00:22:28;;;;;;;;;;;;;;;25.42;25.41;95594.78;5046212;28;19956;-88
2023/03/11 00:24:53;;;;;;;;;;;;;;;26.23;24.41;95593.38;5052719;28;19970;-88
2023/03/11 00:27:19;;;;;;;;;;;;;;;26.26;24.27;95593.13;5051869;28;19960;-88
2023/03/11 00:29:46;;;;;;;;;;;;;;;25.77;25.24;95597.28;5053654;28;20491;-87
2023/03/11 00:32:12;;;;;;;;;;;;;;;26.59;24.03;95593.16;5043997;28;19978;-87
2023/03/11 00:34:38;;;;;;;;;;;;;;;26.75;23.83;95594.47;5049851;28;20018;-87
2023/03/11 00:37:04;;;;;;;;;;;;;;;27.18;23.00;95587.28;5050515;28;20342;-87
2023/03/11 00:39:30;;;;;;;;;;;;;;;26.55;23.81;95591.88;5056966;28;19927;-87
2023/03/11 00:41:56;;;;;;;;;;;;;;;27.01;23.99;95594.22;5060931;28;19944;-88
2023/03/11 00:44:22;;;;;;;;;;;;;;;26.57;23.98;95592.91;5058351;28;19921;-87
2023/03/11 00:46:48;;;;;;;;;;;;;;;26.82;23.48;95590.38;5060713;28;19925;-88
2023/03/11 00:49:14;;;;;;;;;;;;;;;26.66;23.98;95584.22;5051809;28;20418;-87
2023/03/11 00:51:40;;;;;;;;;;;;;;;26.81;23.29;95598.06;5045046;28;19970;-87
2023/03/11 00:54:06;;;;;;;;;;;;;;;26.67;23.89;95599.06;5049103;28;19925;-88
2023/03/11 00:56:32;;;;;;;;;;;;;;;26.71;23.58;95586.28;5052983;28;19931;-87
2023/03/11 00:58:58;;;;;;;;;;;;;;;26.43;24.07;95577.03;5052592;28;20322;-88
2023/03/11 01:01:24;;;;;;;;;;;;;;;26.52;24.12;95585.22;5050739;28;19931;-87
2023/03/11 01:03:50;;;;;;;;;;;;;;;26.72;23.80;95572.97;5050939;28;19924;-88
2023/03/11 01:06:16;;;;;;;;;;;;;;;27.15;23.53;95581.91;5044879;28;19928;-88
2023/03/11 01:08:42;;;;;;;;;;;;;;;27.11;23.61;95576.53;5044946;28;20004;-87
2023/03/11 01:11:08;;;;;;;;;;;;;;;27.29;23.30;95572.41;5051425;28;20015;-87
2023/03/11 01:13:35;;;;;;;;;;;;;;;26.99;23.61;95562.97;5045688;28;20468;-88
2023/03/11 01:16:01;;;;;;;;;;;;;;;26.58;23.91;95565.53;5053794;28;20363;-88
2023/03/11 01:18:27;;;;;;;;;;;;;;;26.61;24.21;95562.47;5056415;28;20029;-88
2023/03/11 01:20:53;;;;;;;;;;;;;;;26.87;23.56;95561.44;5055469;28;19933;-88
2023/03/11 01:23:20;;;;;;;;;;;;;;;27.19;23.05;95574.72;5045231;28;20289;-87
2023/03/11 01:25:46;;;;;;;;;;;;;;;27.03;23.22;95563.47;5045397;28;19963;-88
2023/03/11 01:28:12;;;;;;;;;;;;;;;26.76;23.57;95565.06;5051145;28;19921;-87
2023/03/11 01:30:39;;;;;;;;;;;;;;;26.63;23.69;95568.34;5039625;28;20020;-87
2023/03/11 01:33:05;;;;;;;;;;;;;;;26.05;24.21;95566.44;5044419;28;19928;-87
2023/03/11 01:35:31;;;;;;;;;;;;;;;25.97;24.80;95568.22;5048082;28;19975;-88
2023/03/11 01:37:58;;;;;;;;;;;;;;;26.11;24.61;95563.69;5045445;28;19927;-87
2023/03/11 01:40:27;;;;;;;;;;;;;;;26.19;24.34;95562.66;5048418;28;20031;-87
2023/03/11 01:42:53;;;;;;;;;;;;;;;26.05;24.34;95555.97;5048073;28;19939;-87
2023/03/11 01:45:31;;;;;;;;;;;;;;;26.74;23.95;95551.47;5046634;28;19921;-88
2023/03/11 01:47:57;;;;;;;;;;;;;;;26.67;23.56;95557.63;5060007;28;19917;-88
2023/03/11 01:50:24;;;;;;;;;;;;;;;26.40;24.16;95552.72;5052830;28;20308;-89
2023/03/11 01:52:50;;;;;;;;;;;;;;;26.24;24.17;95559.09;5050461;28;19968;-88
2023/03/11 01:55:17;;;;;;;;;;;;;;;26.32;24.27;95565.00;5058867;28;20399;-88
2023/03/11 01:57:45;;;;;;;;;;;;;;;26.75;24.11;95560.69;5077200;28;19958;-88
2023/03/11 02:00:12;;;;;;;;;;;;;;;27.36;23.42;95567.00;5061211;28;19927;-88
2023/03/11 02:02:42;;;;;;;;;;;;;;;27.68;22.80;95581.53;5052484;28;20320;-88
2023/03/11 02:05:08;;;;;;;;;;;;;;;27.63;22.83;95582.34;5047629;28;19927;-88
2023/03/11 02:07:36;;;;;;;;;;;;;;;27.44;22.71;95580.59;5062988;28;19921;-88
2023/03/11 02:10:03;;;;;;;;;;;;;;;27.41;23.04;95573.94;5048447;28;19935;-88
2023/03/11 02:12:32;;;;;;;;;;;;;;;27.31;22.55;95564.19;5057925;28;20373;-88
2023/03/11 02:14:59;;;;;;;;;;;;;;;27.29;22.04;95580.84;5055857;28;19925;-87
2023/03/11 02:17:25;;;;;;;;;;;;;;;26.56;23.36;95577.28;5053948;28;20422;-88
2023/03/11 02:19:54;;;;;;;;;;;;;;;26.39;23.42;95579.34;5050735;28;20526;-88
2023/03/11 02:22:20;;;;;;;;;;;;;;;26.30;23.69;95570.38;5045065;28;19920;-88
2023/03/11 02:24:54;;;;;;;;;;;;;;;27.14;23.20;95569.84;5042803;28;20777;-88
2023/03/11 02:27:21;;;;;;;;;;;;;;;27.07;23.05;95576.00;5044838;28;20061;-88
2023/03/11 02:29:48;;;;;;;;;;;;;;;26.79;23.12;95578.13;5044524;28;20100;-88
2023/03/11 02:32:15;;;;;;;;;;;;;;;25.94;23.80;95580.47;5040511;28;19951;-88
2023/03/11 02:34:41;;;;;;;;;;;;;;;25.79;23.69;95597.53;5043121;28;19930;-87
2023/03/11 02:37:08;;;;;;;;;;;;;;;24.94;24.81;95596.03;5042100;28;20053;-88
2023/03/11 02:39:41;;;;;;;;;;;;;;;24.29;24.93;95595.69;5058503;28;19938;-88
2023/03/11 02:42:10;;;;;;;;;;;;;;;25.35;23.90;95595.25;5041669;28;19968;-87
2023/03/11 02:44:36;;;;;;;;;;;;;;;24.74;23.74;95592.00;5044310;28;19975;-87
2023/03/11 02:47:02;;;;;;;;;;;;;;;25.72;23.19;95589.59;5047101;28;19921;-87
2023/03/11 02:49:30;;;;;;;;;;;;;;;25.56;23.67;95592.31;5050815;28;19936;-87
2023/03/11 02:51:56;;;;;;;;;;;;;;;24.67;24.45;95586.06;5050804;28;19960;-86
2023/03/11 02:54:22;;;;;;;;;;;;;;;24.81;24.12;95584.44;5041664;28;19960;-87
2023/03/11 02:56:48;;;;;;;;;;;;;;;25.45;23.50;95583.84;5040985;28;20363;-87
2023/03/11 02:59:14;;;;;;;;;;;;;;;25.39;23.53;95584.56;5044444;28;19925;-87
2023/03/11 03:01:40;;;;;;;;;;;;;;;25.55;22.81;95582.38;5052409;28;19921;-87
2023/03/11 03:04:06;;;;;;;;;;;;;;;24.38;23.73;95586.34;5048759;28;19924;-87
2023/03/11 03:06:32;;;;;;;;;;;;;;;23.99;24.20;95581.06;5054094;28;20432;-87
2023/03/11 03:08:58;;;;;;;;;;;;;;;24.66;23.41;95587.34;5052891;28;19920;-87
2023/03/11 03:11:24;;;;;;;;;;;;;;;25.55;23.35;95588.78;5052657;28;19928;-87
2023/03/11 03:13:50;;;;;;;;;;;;;;;26.06;22.41;95590.50;5066644;28;19948;-87
2023/03/11 03:16:16;;;;;;;;;;;;;;;25.08;22.54;95598.69;5046322;28;20388;-87
2023/03/11 03:18:42;;;;;;;;;;;;;;;24.24;23.69;95590.03;5051741;28;19921;-86
2023/03/11 03:21:08;;;;;;;;;;;;;;;24.39;24.00;95599.88;5051580;28;19921;-87
2023/03/11 03:23:36;;;;;;;;;;;;;;;24.66;23.33;95590.94;5040636;28;19975;-88
2023/03/11 03:26:03;;;;;;;;;;;;;;;26.06;22.22;95602.50;5048175;28;19928;-88
2023/03/11 03:28:29;;;;;;;;;;;;;;;25.78;22.48;95595.25;5053042;28;20308;-87
2023/03/11 03:30:55;;;;;;;;;;;;;;;26.01;22.14;95599.66;5041408;28;19927;-88
2023/03/11 03:33:21;;;;;;;;;;;;;;;24.92;24.05;95595.75;5052490;28;19927;-87
2023/03/11 03:35:47;;;;;;;;;;;;;;;24.21;23.71;95588.97;5052860;28;19920;-87
2023/03/11 03:38:13;;;;;;;;;;;;;;;24.01;24.27;95586.94;5053988;28;19927;-86
2023/03/11 03:40:44;;;;;;;;;;;;;;;23.75;25.65;95588.97;5046330;28;19925;-87
2023/03/11 03:43:10;;;;;;;;;;;;;;;24.29;24.47;95592.13;5050692;28;19932;-87
2023/03/11 03:45:36;;;;;;;;;;;;;;;24.50;23.40;95593.59;5048063;28;19921;-87
2023/03/11 03:48:02;;;;;;;;;;;;;;;24.76;22.90;95597.16;5051384;28;20387;-86
2023/03/11 03:50:28;;;;;;;;;;;;;;;24.56;23.67;95592.38;5048910;28;19921;-87
2023/03/11 03:52:54;;;;;;;;;;;;;;;24.82;23.01;95591.59;5066401;28;20400;-87
2023/03/11 03:55:20;;;;;;;;;;;;;;;25.10;22.94;95584.91;5053566;28;19982;-87
2023/03/11 03:57:46;;;;;;;;;;;;;;;23.79;23.99;95592.31;5050982;28;20023;-87
2023/03/11 04:00:13;;;;;;;;;;;;;;;24.48;23.25;95593.34;5051198;28;19920;-87
2023/03/11 04:02:39;;;;;;;;;;;;;;;24.67;22.82;95594.50;5053323;28;19921;-86
2023/03/11 04:05:05;;;;;;;;;;;;;;;25.18;22.50;95597.19;5050618;28;20825;-86
2023/03/11 04:07:32;;;;;;;;;;;;;;;25.46;22.20;95588.22;5051310;28;19925;-87
2023/03/11 04:09:58;;;;;;;;;;;;;;;24.83;22.75;95581.91;5063487;28;19921;-87
2023/03/11 04:12:24;;;;;;;;;;;;;;;25.07;22.58;95574.66;5071446;28;19956;-87
2023/03/11 04:14:50;;;;;;;;;;;;;;;24.67;22.58;95581.25;5050858;28;19966;-87
2023/03/11 04:17:16;;;;;;;;;;;;;;;25.18;22.11;95582.41;5052852;28;19920;-87
2023/03/11 04:19:42;;;;;;;;;;;;;;;24.00;23.20;95562.22;5050492;28;19963;-87
2023/03/11 04:22:08;;;;;;;;;;;;;;;24.17;23.70;95554.78;5046659;28;19967;-87
2023/03/11 04:24:35;;;;;;;;;;;;;;;24.64;22.49;95559.78;5049947;28;19928;-87
2023/03/11 04:27:01;;;;;;;;;;;;;;;25.14;22.29;95556.59;5051830;28;19928;-87
2023/03/11 04:29:27;;;;;;;;;;;;;;;25.34;22.31;95553.66;5048404;28;19921;-87
2023/03/11 04:31:53;;;;;;;;;;;;;;;25.90;21.91;95549.81;5051891;28;20398;-88
2023/03/11 04:34:19;;;;;;;;;;;;;;;25.81;21.49;95561.25;5049284;28;19995;-87
2023/03/11 04:36:45;;;;;;;;;;;;;;;25.39;21.70;95550.84;5052935;28;19917;-87
2023/03/11 04:39:11;;;;;;;;;;;;;;;25.16;22.70;95554.81;5053272;28;21254;-87
2023/03/11 04:41:37;;;;;;;;;;;;;;;24.99;22.17;95551.16;5041193;28;19966;-87
2023/03/11 04:44:03;;;;;;;;;;;;;;;24.41;22.99;95552.44;5052793;28;19950;-87
2023/03/11 04:46:29;;;;;;;;;;;;;;;24.50;22.67;95551.53;5056145;28;19929;-87
2023/03/11 04:48:55;;;;;;;;;;;;;;;23.94;23.33;95564.22;5044846;28;19925;-86
2023/03/11 04:51:21;;;;;;;;;;;;;;;24.03;23.15;95564.84;5049784;28;20376;-86
2023/03/11 04:53:47;;;;;;;;;;;;;;;22.85;24.85;95567.88;5051354;28;19924;-87
2023/03/11 04:56:13;;;;;;;;;;;;;;;23.13;24.00;95564.19;5067333;28;19933;-87
2023/03/11 04:58:39;;;;;;;;;;;;;;;22.60;24.62;95564.44;5050319;28;20376;-87
2023/03/11 05:01:05;;;;;;;;;;;;;;;23.19;25.05;95564.28;5055033;28;19921;-87
2023/03/11 05:03:31;;;;;;;;;;;;;;;23.33;23.93;95560.66;5048873;28;19921;-87
2023/03/11 05:05:58;;;;;;;;;;;;;;;;;;5051478;28;20388;-86
2023/03/11 05:08:25;;;;;;;;;;;;;;;22.35;24.83;95555.88;5052286;28;19920;-88
2023/03/11 05:10:54;;;;;;;;;;;;;;;22.05;24.81;95555.09;5050705;28;19967;-87
2023/03/11 05:13:20;;;;;;;;;;;;;;;21.74;27.29;95557.53;5051055;28;20016;-87
2023/03/11 05:15:46;;;;;;;;;;;;;;;21.98;25.77;95561.81;5051748;28;19995;-87
2023/03/11 05:18:12;;;;;;;;;;;;;;;22.14;25.79;95555.00;5055830;28;19982;-87
2023/03/11 05:20:38;;;;;;;;;;;;;;;22.19;25.87;95559.91;5061265;28;19921;-87
2023/03/11 05:23:04;;;;;;;;;;;;;;;22.61;25.63;95554.03;5049549;28;19978;-87
2023/03/11 05:25:31;;;;;;;;;;;;;;;22.30;25.58;95557.31;5052911;28;20022;-88
2023/03/11 05:27:57;;;;;;;;;;;;;;;21.68;27.13;95563.00;5051536;28;19924;-87
2023/03/11 05:30:23;;;;;;;;;;;;;;;21.90;25.96;95554.31;5054237;28;20407;-86
2023/03/11 05:32:49;;;;;;;;;;;;;;;20.89;26.74;95559.03;5063930;28;19974;-87
2023/03/11 05:35:15;;;;;;;;;;;;;;;20.89;27.47;95549.88;5048280;28;19917;-88
2023/03/11 05:37:41;;;;;;;;;;;;;;;20.13;29.42;95558.69;5037621;28;19964;-87
2023/03/11 05:40:09;;;;;;;;;;;;;;;20.81;27.65;95559.88;5049750;28;19936;-88
2023/03/11 05:42:35;;;;;;;;;;;;;;;20.31;28.56;95553.88;5053921;28;19928;-87
2023/03/11 05:45:01;;;;;;;;;;;;;;;20.96;27.87;95567.06;5046502;28;19925;-86
2023/03/11 05:47:27;;;;;;;;;;;;;;;20.18;28.66;95558.84;5053851;28;19982;-87
2023/03/11 05:49:53;;;;;;;;;;;;;;;18.57;32.12;95581.28;5054242;28;19920;-87
2023/03/11 05:52:19;;;;;;;;;;;;;;;19.29;31.74;95575.91;5050710;28;19921;-87
2023/03/11 05:54:48;;;;;;;;;;;;;;;18.21;33.13;95583.84;5047545;28;19931;-87
2023/03/11 05:57:14;;;;;;;;;;;;;;;18.46;32.22;95590.03;5055132;28;19929;-87
2023/03/11 05:59:40;;;;;;;;;;;;;;;19.07;31.21;95600.28;5054712;28;20030;-87
2023/03/11 06:02:06;;;;;;;;;;;;;;;18.87;31.17;95607.47;5055737;28;22050;-87
2023/03/11 06:04:32;;;;;;;;;;;;;;;18.07;31.11;95607.38;5071177;28;19929;-86
2023/03/11 06:06:58;;;;;;;;;;;;;;;18.46;30.78;95634.47;5045566;28;19925;-86
2023/03/11 06:09:24;;;;;;;;;;;;;;;16.94;32.72;95639.03;5053544;28;19928;-86
2023/03/11 06:11:50;;;;;;;;;;;;;;;17.66;30.99;95639.03;5053022;28;20365;-87
2023/03/11 06:14:16;;;;;;;;;;;;;;;15.87;32.58;95634.38;5052622;28;19924;-88
2023/03/11 06:16:42;;;;;;;;;;;;;;;17.61;30.04;95661.00;5052120;28;19921;-88
2023/03/11 06:19:09;;;;;;;;;;;;;;;17.30;30.93;95649.75;5048923;28;20292;-89
2023/03/11 06:21:35;;;;;;;;;;;;;;;17.19;29.84;95674.28;5049697;28;20300;-89
2023/03/11 06:24:01;;;;;;;;;;;;;;;16.14;30.78;95665.22;5053644;28;19925;-88
2023/03/11 06:26:27;;;;;;;;;;;;;;;16.53;32.67;95680.72;5054014;28;19921;-90
2023/03/11 06:28:53;;;;;;;;;;;;;;;15.72;31.95;95694.88;5055574;28;19998;-89
2023/03/11 06:31:20;;;;;;;;;;;;;;;16.92;30.72;95688.59;5052750;28;19917;-91
2023/03/11 06:33:47;;;;;;;;;;;;;;;17.27;30.02;95670.03;5048506;28;19960;-90
2023/03/11 06:36:14;;;;;;;;;;;;;;;16.86;29.50;95701.47;5048459;28;19951;-88
2023/03/11 06:38:40;;;;;;;;;;;;;;;17.24;29.70;95693.91;5052011;28;19917;-87
2023/03/11 06:41:06;;;;;;;;;;;;;;;15.72;30.66;95699.63;5048534;28;19981;-86
2023/03/11 06:43:33;;;;;;;;;;;;;;;15.48;33.14;95695.50;5053512;28;19932;-87
2023/03/11 06:45:59;;;;;;;;;;;;;;;15.08;33.13;95701.19;5048955;28;20481;-87
2023/03/11 06:48:27;;;;;;;;;;;;;;;16.49;31.82;95704.94;5049204;28;20395;-86
2023/03/11 06:50:54;;;;;;;;;;;;;;;16.01;32.87;95702.41;5052455;28;19927;-87
2023/03/11 06:53:20;;;;;;;;;;;;;;;16.42;31.08;95700.41;5056738;28;19975;-91
2023/03/11 06:55:56;;;;;;;;;;;;;;;14.70;34.08;95685.56;5051682;28;20012;-88
2023/03/11 06:58:22;;;;;;;;;;;;;;;14.96;31.65;95710.16;5051107;28;19928;-87
2023/03/11 07:00:48;;;;;;;;;;;;;;;14.04;33.05;95707.84;5056420;28;19921;-90
2023/03/11 07:03:14;;;;;;;;;;;;;;;15.98;31.34;95725.41;5052388;28;19925;-94
2023/03/11 07:05:40;;;;;;;;;;;;;;;16.93;29.63;95731.75;5065552;28;19920;-91
2023/03/11 07:08:06;;;;;;;;;;;;;;;16.61;31.15;95739.47;5054187;28;19924;-91
2023/03/11 07:10:32;;;;;;;;;;;;;;;17.46;28.99;95746.66;5055201;28;20400;-93
2023/03/11 07:12:58;;;;;;;;;;;;;;;17.95;27.96;95756.13;5056237;28;19925;-93
2023/03/11 07:15:24;;;;;;;;;;;;;;;17.49;29.22;95750.56;5048853;28;19936;-92
2023/03/11 07:17:50;;;;;;;;;;;;;;;17.64;28.31;95773.88;5053358;28;19920;-90
2023/03/11 07:20:16;;;;;;;;;;;;;;;17.27;30.14;95764.31;5041484;28;20304;-91
2023/03/11 07:22:42;;;;;;;;;;;;;;;17.89;27.83;95777.38;5053869;28;20303;-91
2023/03/11 07:25:09;;;;;;;;;;;;;;;17.41;28.30;95776.97;5052004;28;19924;-89
2023/03/11 07:27:35;;;;;;;;;;;;;;;15.31;31.96;95785.19;5049236;28;20392;-88
2023/03/11 07:30:01;;;;;;;;;;;;;;;15.17;32.37;95777.97;5054377;28;19920;-90
2023/03/11 07:32:27;;;;;;;;;;;;;;;15.26;32.35;95794.75;5054096;28;19935;-91
2023/03/11 07:34:53;;;;;;;;;;;;;;;16.19;31.16;95788.47;5044019;28;19920;-94
2023/03/11 07:37:19;;;;;;;;;;;;;;;15.99;31.81;95791.38;5047347;28;19921;-89
2023/03/11 07:39:45;;;;;;;;;;;;;;;15.02;33.79;95804.38;5055314;28;19917;-90
2023/03/11 07:42:11;;;;;;;;;;;;;;;15.79;31.75;95815.63;5055037;28;20351;-93
2023/03/11 07:44:37;;;;;;;;;;;;;;;16.39;30.44;95812.03;5054495;28;20414;-92
2023/03/11 07:47:04;;;;;;;;;;;;;;;15.36;33.92;95815.84;5043381;28;19925;-89
2023/03/11 07:49:31;;;;;;;;;;;;;;;15.29;33.58;95827.06;5047417;28;19921;-91
2023/03/11 07:51:57;;;;;;;;;;;;;;;15.97;33.63;95820.69;5054535;28;19978;-90
2023/03/11 07:54:23;;;;;;;;;;;;;;;15.76;32.81;95816.47;5049931;28;19921;-90
2023/03/11 07:56:49;;;;;;;;;;;;;;;15.30;34.33;95834.16;5050119;28;19939;-91
2023/03/11 07:59:15;;;;;;;;;;;;;;;14.69;35.69;95833.09;5054023;28;19983;-90
2023/03/11 08:01:45;;;;;;;;;;;;;;;15.68;34.05;95831.72;5071690;28;19925;-89
2023/03/11 08:04:12;;;;;;;;;;;;;;;16.11;33.05;95825.84;5053382;28;19921;-90
2023/03/11 08:06:40;;;;;;;;;;;;;;;16.86;31.84;95828.94;5055596;28;19921;-89
2023/03/11 08:09:08;;;;;;;;;;;;;;;14.98;35.40;95836.84;5063919;28;19921;-91
2023/03/11 08:11:34;;;;;;;;;;;;;;;15.47;33.17;95841.28;5042612;28;19922;-89
2023/03/11 08:14:00;;;;;;;;;;;;;;;15.38;34.07;95846.59;5045604;28;19928;-91
2023/03/11 08:16:26;;;;;;;;;;;;;;;15.43;33.82;95837.78;5050727;28;19928;-93
2023/03/11 08:18:53;;;;;;;;;;;;;;;16.30;32.93;95852.66;5056924;28;20442;-93
2023/03/11 08:21:23;;;;;;;;;;;;;;;15.52;33.59;95846.28;5052211;28;20024;-92
2023/03/11 08:23:51;;;;;;;;;;;;;;;16.26;32.71;95846.44;5051115;28;19927;-92
2023/03/11 08:26:18;;;;;;;;;;;;;;;14.78;34.92;95847.13;5052625;28;19924;-89
2023/03/11 08:28:44;;;;;;;;;;;;;;;14.31;37.04;95850.00;5068612;28;20011;-91
2023/03/11 08:31:15;;;;;;;;;;;;;;;16.85;32.43;95863.41;5052560;28;20434;-92
2023/03/11 08:33:42;;;;;;;;;;;;;;;16.49;31.94;95852.53;5054085;28;19970;-92
2023/03/11 08:36:08;;;;;;;;;;;;;;;16.13;33.20;95865.72;5053276;28;19928;-92
2023/03/11 08:38:34;;;;;;;;;;;;;;;16.37;33.17;95864.31;5065212;28;19924;-91
2023/03/11 08:41:00;;;;;;;;;;;;;;;16.30;32.62;95855.41;5048871;28;19920;-93
2023/03/11 08:43:27;;;;;;;;;;;;;;;15.92;33.23;95868.28;5048449;28;19925;-90
2023/03/11 08:45:53;;;;;;;;;;;;;;;17.79;30.38;95864.53;5055508;28;20388;-93
2023/03/11 08:48:19;;;;;;;;;;;;;;;18.24;29.47;95869.81;5052783;28;19934;-92
2023/03/11 08:50:45;;;;;;;;;;;;;;;18.49;28.81;95869.75;5052741;28;20007;-92
2023/03/11 08:53:11;;;;;;;;;;;;;;;17.00;30.14;95870.09;5052369;28;20009;-91
2023/03/11 08:55:37;;;;;;;;;;;;;;;17.63;30.51;95881.31;5052959;28;20433;-91
2023/03/11 08:58:03;;;;;;;;;;;;;;;16.46;31.96;95894.94;5052239;28;20012;-91
2023/03/11 09:00:29;;;;;;;;;;;;;;;16.19;33.55;95888.16;5046164;28;19921;-91
2023/03/11 09:02:55;;;;;;;;;;;;;;;17.10;31.19;95882.13;5069656;28;19913;-92
2023/03/11 09:05:21;;;;;;;;;;;;;;;16.66;31.16;95867.13;5053487;28;19927;-92
2023/03/11 09:07:47;;;;;;;;;;;;;;;17.33;32.27;95892.13;5045411;28;20012;-92
2023/03/11 09:10:14;;;;;;;;;;;;;;;17.57;31.89;95896.19;5061797;28;19921;-90
2023/03/11 09:12:40;;;;;;;;;;;;;;;16.40;32.87;95904.22;5049770;28;20020;-89
2023/03/11 09:15:07;;;;;;;;;;;;;;;15.85;34.93;95903.19;5051325;28;19928;-88
2023/03/11 09:17:33;;;;;;;;;;;;;;;16.02;33.44;95919.78;5052743;28;19917;-91
2023/03/11 09:19:59;;;;;;;;;;;;;;;15.82;33.76;95925.44;5043781;28;19943;-86
2023/03/11 09:22:25;;;;;;;;;;;;;;;15.42;34.63;95933.00;5047870;28;19948;-87
2023/03/11 09:24:51;;;;;;;;;;;;;;;15.33;34.40;95932.03;5044796;28;20020;-87
2023/03/11 09:27:17;;;;;;;;;;;;;;;15.21;32.58;95931.50;5039239;28;19924;-91
2023/03/11 09:29:44;;;;;;;;;;;;;;;15.15;33.58;95924.09;5049555;28;20023;-90
2023/03/11 09:32:13;;;;;;;;;;;;;;;14.69;34.63;95940.81;5054287;28;19916;-89
2023/03/11 09:34:39;;;;;;;;;;;;;;;15.98;31.41;95930.97;5051151;28;19921;-92
2023/03/11 09:37:05;;;;;;;;;;;;;;;15.49;32.16;95913.53;5060718;28;19935;-90
2023/03/11 09:39:31;;;;;;;;;;;;;;;16.00;33.06;95952.66;5054452;28;20389;-89
2023/03/11 09:42:03;;;;;;;;;;;;;;;15.18;32.92;95946.16;5041881;28;19925;-94
2023/03/11 09:44:44;;;;;;;;;;;;;;;14.29;35.03;95940.72;5047138;28;19920;-88
2023/03/11 09:47:23;;;;;;;;;;;;;;;14.48;35.46;95948.28;5048955;28;19921;-93
2023/03/11 09:50:04;;;;;;;;;;;;;;;15.32;33.24;95964.41;5050038;28;19927;-93
2023/03/11 09:52:45;;;;;;;;;;;;;;;13.94;36.92;95957.84;5051138;28;19920;-90
2023/03/11 09:55:20;;;;;;;;;;;;;;;14.84;34.39;95955.94;5044093;28;20055;-90
2023/03/11 09:57:47;;;;;;;;;;;;;;;15.00;34.05;95969.81;5049230;28;19928;-93
2023/03/11 10:00:23;;;;;;;;;;;;;;;15.19;34.23;95963.53;5045386;28;19952;-93
2023/03/11 10:02:49;;;;;;;;;;;;;;;15.98;33.14;95977.22;5047592;28;20394;-91
2023/03/11 10:05:20;;;;;;;;;;;;;;;17.48;30.50;95968.91;5050228;28;19929;-90
2023/03/11 10:07:50;;;;;;;;;;;;;;;18.18;29.33;95974.34;5056625;28;19920;-89
2023/03/11 10:10:16;;;;;;;;;;;;;;;17.23;30.25;95969.66;5048491;28;19921;-89
2023/03/11 10:12:51;;;;;;;;;;;;;;;16.70;31.33;95978.63;5060386;28;20257;-89
2023/03/11 10:15:23;;;;;;;;;;;;;;;16.67;30.96;95985.03;5052569;28;19974;-88
2023/03/11 10:17:52;;;;;;;;;;;;;;;15.22;34.02;95993.06;5050793;28;20296;-88
2023/03/11 10:20:20;;;;;;;;;;;;;;;14.08;36.20;95995.47;5044956;28;19929;-88
2023/03/11 10:22:54;;;;;;;;;;;;;;;15.34;34.01;95997.16;5046640;28;19921;-89
2023/03/11 10:25:27;;;;;;;;;;;;;;;15.45;34.10;96006.06;5056900;28;19921;-86
2023/03/11 10:28:02;;;;;;;;;;;;;;;15.31;34.12;96012.59;5044425;28;19922;-87
2023/03/11 10:30:45;;;;;;;;;;;;;;;15.04;34.37;96020.25;5068400;28;19925;-88
2023/03/11 10:33:14;;;;;;;;;;;;;;;15.08;35.08;96027.28;5056893;28;19921;-87
2023/03/11 10:35:43;;;;;;;;;;;;;;;15.18;34.93;96025.53;5047144;28;19928;-88
2023/03/11 10:38:13;;;;;;;;;;;;;;;14.88;34.55;96032.00;5053068;28;19943;-88
2023/03/11 10:40:40;;;;;;;;;;;;;;;15.08;34.75;96032.81;5036493;28;20288;-87
2023/03/11 10:43:14;;;;;;;;;;;;;;;14.60;34.12;96028.94;5044896;28;19975;-85
2023/03/11 10:45:43;;;;;;;;;;;;;;;14.63;34.54;96045.47;5046771;28;19925;-86
2023/03/11 10:48:11;;;;;;;;;;;;;;;15.89;32.97;96044.25;5046861;28;20357;-86
2023/03/11 10:50:39;;;;;;;;;;;;;;;15.60;33.90;96038.53;5045427;28;20364;-86
2023/03/11 10:53:06;;;;;;;;;;;;;;;15.26;33.62;96051.03;5052545;28;19921;-85
2023/03/11 10:55:33;;;;;;;;;;;;;;;16.06;32.06;96056.88;5045924;28;20401;-86
2023/03/11 10:58:19;;;;;;;;;;;;;;;15.78;32.36;96063.81;5048664;28;20015;-87
2023/03/11 11:00:45;;;;;;;;;;;;;;;16.45;31.89;96064.31;5051730;28;19925;-87
2023/03/11 11:03:16;;;;;;;;;;;;;;;15.19;33.77;96071.31;5049717;28;19921;-87
2023/03/11 11:05:42;;;;;;;;;;;;;;;15.49;33.44;96073.13;5053225;28;20327;-87
2023/03/11 11:08:13;;;;;;;;;;;;;;;15.55;32.91;96068.66;5049198;28;19924;-88
2023/03/11 11:10:52;;;;;;;;;;;;;;;14.82;34.00;96077.88;5047105;28;19964;-88
2023/03/11 11:13:20;;;;;;;;;;;;;;;15.12;33.48;96094.31;5048017;28;20350;-88
2023/03/11 11:15:55;;;;;;;;;;;;;;;15.10;33.55;96071.84;5050114;28;19943;-89
2023/03/11 11:18:23;;;;;;;;;;;;;;;14.17;35.56;96098.59;5048774;28;19921;-88
2023/03/11 11:21:00;;;;;;;;;;;;;;;14.69;34.35;96098.22;5047494;28;20039;-90
2023/03/11 11:23:37;;;;;;;;;;;;;;;14.62;34.21;96110.19;5045352;28;19921;-90
2023/03/11 11:26:05;;;;;;;;;;;;;;;13.60;35.75;96108.81;5049526;28;19947;-89
2023/03/11 11:28:32;;;;;;;;;;;;;;;14.12;35.13;96115.59;5045922;28;20376;-88
2023/03/11 11:31:03;;;;;;;;;;;;;;;14.25;35.77;96115.84;5043857;28;19924;-88
2023/03/11 11:33:31;;;;;;;;;;;;;;;14.23;34.37;96127.31;5047845;28;19932;-86
2023/03/11 11:36:01;;;;;;;;;;;;;;;14.45;35.12;96136.06;5039450;28;19971;-88
2023/03/11 11:38:28;;;;;;;;;;;;;;;15.24;32.67;96129.63;5049066;28;20007;-90
2023/03/11 11:40:55;;;;;;;;;;;;;;;15.95;31.65;96121.97;5046862;28;20312;-86
2023/03/11 11:43:33;;;;;;;;;;;;;;;15.46;32.81;96132.03;5047127;28;20404;-89
2023/03/11 11:46:03;;;;;;;;;;;;;;;15.40;33.04;96134.50;5047356;28;20262;-87
2023/03/11 11:48:29;;;;;;;;;;;;;;;15.92;31.95;96150.53;5063518;28;19935;-87
2023/03/11 11:50:59;;;;;;;;;;;;;;;16.29;31.68;96158.44;5046691;28;19925;-87
2023/03/11 11:53:45;;;;;;;;;;;;;;;16.05;32.15;96160.53;5046652;28;19956;-86
2023/03/11 11:56:11;;;;;;;;;;;;;;;15.21;33.56;96160.91;5048746;28;20335;-86
2023/03/11 11:58:39;;;;;;;;;;;;;;;14.60;34.45;96172.53;5046875;28;19921;-85
2023/03/11 12:01:18;;;;;;;;;;;;;;;15.27;32.32;96165.94;5044849;28;20296;-86
2023/03/11 12:03:47;;;;;;;;;;;;;;;15.63;32.53;96178.75;5048216;28;19929;-86
2023/03/11 12:06:26;;;;;;;;;;;;;;;16.61;30.87;96177.16;5050055;28;20380;-85
2023/03/11 12:08:55;;;;;;;;;;;;;;;15.39;32.12;96195.75;5048202;28;19924;-86
2023/03/11 12:11:25;;;;;;;;;;;;;;;14.17;34.10;96195.16;5051721;28;19916;-89
2023/03/11 12:13:59;;;;;;;;;;;;;;;14.29;34.84;96219.47;5050053;28;19936;-88
2023/03/11 12:16:25;;;;;;;;;;;;;;;12.99;36.47;96207.00;5048131;28;20311;-88
2023/03/11 12:18:55;;;;;;;;;;;;;;;12.45;37.93;96209.34;5044831;28;20312;-87
2023/03/11 12:21:28;;;;;;;;;;;;;;;13.58;36.56;96227.75;5046130;28;20300;-87
2023/03/11 12:24:12;;;;;;;;;;;;;;;13.67;35.91;96235.56;5054613;28;19985;-87
2023/03/11 12:26:41;;;;;;;;;;;;;;;14.53;34.49;96237.72;5049090;28;19928;-87
2023/03/11 12:29:13;;;;;;;;;;;;;;;14.24;36.93;96239.25;5044974;28;20067;-88
2023/03/11 12:31:40;;;;;;;;;;;;;;;13.12;36.71;96232.91;5048426;28;20010;-87
2023/03/11 12:34:10;;;;;;;;;;;;;;;13.05;37.51;96235.69;5049640;28;19921;-90
2023/03/11 12:36:38;;;;;;;;;;;;;;;12.09;38.85;96253.94;5053716;28;19920;-89
2023/03/11 12:39:06;;;;;;;;;;;;;;;13.43;36.41;96281.47;5048786;28;20031;-86
2023/03/11 12:41:32;;;;;;;;;;;;;;;12.57;38.71;96287.13;5041424;28;20015;-87
2023/03/11 12:44:00;;;;;;;;;;;;;;;11.10;40.99;96306.25;5044550;28;19925;-87
2023/03/11 12:46:45;;;;;;;;;;;;;;;12.15;39.60;96327.38;5054038;28;20427;-87
2023/03/11 12:49:12;;;;;;;;;;;;;;;11.23;40.96;96345.09;5051349;28;19921;-87